sensor_id;sensor_type;location;lat;lon;timestamp;P1;durP1;ratioP1;P2;durP2;ratioP2
57249;SDS011;43102;52.014;-0.680;2023-01-06T00:00:00;5.60;;;2.40;;
57249;SDS011;43102;52.014;-0.680;2023-01-06T00:01:02;5.60;;;2.40;;
57249;SDS011;43102;52.014;-0.680;2023-01-06T00:02:01;7.10;;;2.50;;
57249;SDS011;43102;52.014;-0.680;2023-01-06T00:03:01;7.10;;;2.50;;
57249;SDS011;43102;52.014;-0.680;2023-01-06T00:04:02;7.10;;;2.50;;
57249;SDS011;43102;52.014;-0.680;2023-01-06T00:05:00;7.10;;;2.50;;
57249;SDS011;43102;52.014;-0.680;2023-01-06T00:06:02;7.10;;;2.50;;
57249;SDS011;43102;52.014;-0.680;2023-01-06T00:07:00;7.10;;;2.50;;
57249;SDS011;43102;52.014;-0.680;2023-01-06T00:08:00;7.10;;;2.50;;
57249;SDS011;43102;52.014;-0.680;2023-01-06T00:09:02;7.10;;;2.50;;
57249;SDS011;43102;52.014;-0.680;2023-01-06T00:10:00;7.10;;;2.50;;
57249;SDS011;43102;52.014;-0.680;2023-01-06T00:11:06;7.10;;;2.50;;
57249;SDS011;43102;52.014;-0.680;2023-01-06T00:12:03;7.10;;;2.50;;
57249;SDS011;43102;52.014;-0.680;2023-01-06T00:13:00;7.10;;;2.50;;
57249;SDS011;43102;52.014;-0.680;2023-01-06T00:14:00;7.10;;;2.50;;
57249;SDS011;43102;52.014;-0.680;2023-01-06T00:15:00;7.10;;;2.50;;
57249;SDS011;43102;52.014;-0.680;2023-01-06T00:16:10;7.10;;;2.50;;
57249;SDS011;43102;52.014;-0.680;2023-01-06T00:17:00;7.10;;;2.50;;
57249;SDS011;43102;52.014;-0.680;2023-01-06T00:18:00;7.10;;;2.50;;
57249;SDS011;43102;52.014;-0.680;2023-01-06T00:19:01;7.10;;;2.50;;
57249;SDS011;43102;52.014;-0.680;2023-01-06T00:20:00;7.10;;;2.50;;
57249;SDS011;43102;52.014;-0.680;2023-01-06T00:21:01;7.10;;;2.50;;
57249;SDS011;43102;52.014;-0.680;2023-01-06T00:22:00;7.10;;;2.50;;
57249;SDS011;43102;52.014;-0.680;2023-01-06T00:23:00;7.10;;;2.50;;
57249;SDS011;43102;52.014;-0.680;2023-01-06T00:24:00;7.10;;;2.50;;
57249;SDS011;43102;52.014;-0.680;2023-01-06T00:25:00;7.10;;;2.50;;
57249;SDS011;43102;52.014;-0.680;2023-01-06T00:26:01;7.10;;;2.50;;
57249;SDS011;43102;52.014;-0.680;2023-01-06T00:27:01;7.10;;;2.50;;
57249;SDS011;43102;52.014;-0.680;2023-01-06T00:28:00;7.10;;;2.50;;
57249;SDS011;43102;52.014;-0.680;2023-01-06T00:29:00;7.10;;;2.50;;
57249;SDS011;43102;52.014;-0.680;2023-01-06T00:30:01;7.10;;;2.50;;
57249;SDS011;43102;52.014;-0.680;2023-01-06T00:31:05;7.10;;;2.50;;
57249;SDS011;43102;52.014;-0.680;2023-01-06T00:32:01;5.70;;;2.90;;
57249;SDS011;43102;52.014;-0.680;2023-01-06T00:33:00;5.70;;;2.90;;
57249;SDS011;43102;52.014;-0.680;2023-01-06T00:34:00;5.70;;;2.90;;
57249;SDS011;43102;52.014;-0.680;2023-01-06T00:35:00;5.70;;;2.90;;
57249;SDS011;43102;52.014;-0.680;2023-01-06T00:36:01;5.70;;;2.90;;
57249;SDS011;43102;52.014;-0.680;2023-01-06T00:37:00;5.70;;;2.90;;
57249;SDS011;43102;52.014;-0.680;2023-01-06T00:38:01;5.70;;;2.90;;
57249;SDS011;43102;52.014;-0.680;2023-01-06T00:39:00;5.70;;;2.90;;
57249;SDS011;43102;52.014;-0.680;2023-01-06T00:40:00;5.70;;;2.90;;
57249;SDS011;43102;52.014;-0.680;2023-01-06T00:41:04;5.70;;;2.90;;
57249;SDS011;43102;52.014;-0.680;2023-01-06T00:42:04;5.70;;;2.90;;
57249;SDS011;43102;52.014;-0.680;2023-01-06T00:43:00;5.70;;;2.90;;
57249;SDS011;43102;52.014;-0.680;2023-01-06T00:44:01;5.70;;;2.90;;
57249;SDS011;43102;52.014;-0.680;2023-01-06T00:45:00;5.70;;;2.90;;
57249;SDS011;43102;52.014;-0.680;2023-01-06T00:46:01;5.70;;;2.90;;
57249;SDS011;43102;52.014;-0.680;2023-01-06T00:47:01;5.70;;;2.90;;
57249;SDS011;43102;52.014;-0.680;2023-01-06T00:48:00;5.70;;;2.90;;
57249;SDS011;43102;52.014;-0.680;2023-01-06T00:49:06;5.70;;;2.90;;
57249;SDS011;43102;52.014;-0.680;2023-01-06T00:50:01;5.70;;;2.90;;
57249;SDS011;43102;52.014;-0.680;2023-01-06T00:51:00;5.70;;;2.90;;
57249;SDS011;43102;52.014;-0.680;2023-01-06T00:52:00;5.70;;;2.90;;
57249;SDS011;43102;52.014;-0.680;2023-01-06T00:53:01;5.70;;;2.90;;
57249;SDS011;43102;52.014;-0.680;2023-01-06T00:54:00;5.70;;;2.90;;
57249;SDS011;43102;52.014;-0.680;2023-01-06T00:55:00;5.70;;;2.90;;
57249;SDS011;43102;52.014;-0.680;2023-01-06T00:56:01;5.70;;;2.90;;
57249;SDS011;43102;52.014;-0.680;2023-01-06T00:57:01;5.70;;;2.90;;
57249;SDS011;43102;52.014;-0.680;2023-01-06T00:58:00;5.70;;;2.90;;
57249;SDS011;43102;52.014;-0.680;2023-01-06T00:59:01;5.70;;;2.90;;
57249;SDS011;43102;52.014;-0.680;2023-01-06T01:00:00;5.70;;;2.90;;
57249;SDS011;43102;52.014;-0.680;2023-01-06T01:01:05;5.70;;;2.90;;
57249;SDS011;43102;52.014;-0.680;2023-01-06T01:02:02;3.50;;;1.40;;
57249;SDS011;43102;52.014;-0.680;2023-01-06T01:03:00;3.50;;;1.40;;
57249;SDS011;43102;52.014;-0.680;2023-01-06T01:04:01;3.50;;;1.40;;
57249;SDS011;43102;52.014;-0.680;2023-01-06T01:05:01;3.50;;;1.40;;
57249;SDS011;43102;52.014;-0.680;2023-01-06T01:06:02;3.50;;;1.40;;
57249;SDS011;43102;52.014;-0.680;2023-01-06T01:07:00;3.50;;;1.40;;
57249;SDS011;43102;52.014;-0.680;2023-01-06T01:08:00;3.50;;;1.40;;
57249;SDS011;43102;52.014;-0.680;2023-01-06T01:09:01;3.50;;;1.40;;
57249;SDS011;43102;52.014;-0.680;2023-01-06T01:10:01;3.50;;;1.40;;
57249;SDS011;43102;52.014;-0.680;2023-01-06T01:11:05;3.50;;;1.40;;
57249;SDS011;43102;52.014;-0.680;2023-01-06T01:12:10;3.50;;;1.40;;
57249;SDS011;43102;52.014;-0.680;2023-01-06T01:13:00;3.50;;;1.40;;
57249;SDS011;43102;52.014;-0.680;2023-01-06T01:14:00;3.50;;;1.40;;
57249;SDS011;43102;52.014;-0.680;2023-01-06T01:15:00;3.50;;;1.40;;
57249;SDS011;43102;52.014;-0.680;2023-01-06T01:16:02;3.50;;;1.40;;
57249;SDS011;43102;52.014;-0.680;2023-01-06T01:17:01;3.50;;;1.40;;
57249;SDS011;43102;52.014;-0.680;2023-01-06T01:18:00;3.50;;;1.40;;
57249;SDS011;43102;52.014;-0.680;2023-01-06T01:19:00;3.50;;;1.40;;
57249;SDS011;43102;52.014;-0.680;2023-01-06T01:20:00;3.50;;;1.40;;
57249;SDS011;43102;52.014;-0.680;2023-01-06T01:21:01;3.50;;;1.40;;
57249;SDS011;43102;52.014;-0.680;2023-01-06T01:22:01;3.50;;;1.40;;
57249;SDS011;43102;52.014;-0.680;2023-01-06T01:23:00;3.50;;;1.40;;
57249;SDS011;43102;52.014;-0.680;2023-01-06T01:24:00;3.50;;;1.40;;
57249;SDS011;43102;52.014;-0.680;2023-01-06T01:25:00;3.50;;;1.40;;
57249;SDS011;43102;52.014;-0.680;2023-01-06T01:26:00;3.50;;;1.40;;
57249;SDS011;43102;52.014;-0.680;2023-01-06T01:27:01;3.50;;;1.40;;
57249;SDS011;43102;52.014;-0.680;2023-01-06T01:28:00;3.50;;;1.40;;
57249;SDS011;43102;52.014;-0.680;2023-01-06T01:29:01;3.50;;;1.40;;
57249;SDS011;43102;52.014;-0.680;2023-01-06T01:30:00;3.50;;;1.40;;
57249;SDS011;43102;52.014;-0.680;2023-01-06T01:31:01;3.50;;;1.40;;
57249;SDS011;43102;52.014;-0.680;2023-01-06T01:32:01;5.50;;;1.80;;
57249;SDS011;43102;52.014;-0.680;2023-01-06T01:33:00;5.50;;;1.80;;
57249;SDS011;43102;52.014;-0.680;2023-01-06T01:34:00;5.50;;;1.80;;
57249;SDS011;43102;52.014;-0.680;2023-01-06T01:35:00;5.50;;;1.80;;
57249;SDS011;43102;52.014;-0.680;2023-01-06T01:36:09;5.50;;;1.80;;
57249;SDS011;43102;52.014;-0.680;2023-01-06T01:37:01;5.50;;;1.80;;
57249;SDS011;43102;52.014;-0.680;2023-01-06T01:38:00;5.50;;;1.80;;
57249;SDS011;43102;52.014;-0.680;2023-01-06T01:39:00;5.50;;;1.80;;
57249;SDS011;43102;52.014;-0.680;2023-01-06T01:40:00;5.50;;;1.80;;
57249;SDS011;43102;52.014;-0.680;2023-01-06T01:41:01;5.50;;;1.80;;
57249;SDS011;43102;52.014;-0.680;2023-01-06T01:42:00;5.50;;;1.80;;
57249;SDS011;43102;52.014;-0.680;2023-01-06T01:43:00;5.50;;;1.80;;
57249;SDS011;43102;52.014;-0.680;2023-01-06T01:44:45;5.50;;;1.80;;
57249;SDS011;43102;52.014;-0.680;2023-01-06T01:45:03;5.50;;;1.80;;
57249;SDS011;43102;52.014;-0.680;2023-01-06T01:46:00;5.50;;;1.80;;
57249;SDS011;43102;52.014;-0.680;2023-01-06T01:47:00;5.50;;;1.80;;
57249;SDS011;43102;52.014;-0.680;2023-01-06T01:48:04;5.50;;;1.80;;
57249;SDS011;43102;52.014;-0.680;2023-01-06T01:49:05;5.50;;;1.80;;
57249;SDS011;43102;52.014;-0.680;2023-01-06T01:51:04;5.50;;;1.80;;
57249;SDS011;43102;52.014;-0.680;2023-01-06T01:52:01;5.50;;;1.80;;
57249;SDS011;43102;52.014;-0.680;2023-01-06T01:53:04;5.50;;;1.80;;
57249;SDS011;43102;52.014;-0.680;2023-01-06T01:54:06;5.50;;;1.80;;
57249;SDS011;43102;52.014;-0.680;2023-01-06T01:55:02;5.50;;;1.80;;
57249;SDS011;43102;52.014;-0.680;2023-01-06T01:56:05;5.50;;;1.80;;
57249;SDS011;43102;52.014;-0.680;2023-01-06T01:57:07;5.50;;;1.80;;
57249;SDS011;43102;52.014;-0.680;2023-01-06T01:58:05;5.50;;;1.80;;
57249;SDS011;43102;52.014;-0.680;2023-01-06T01:59:06;5.50;;;1.80;;
57249;SDS011;43102;52.014;-0.680;2023-01-06T02:00:05;5.50;;;1.80;;
57249;SDS011;43102;52.014;-0.680;2023-01-06T02:01:01;5.50;;;1.80;;
57249;SDS011;43102;52.014;-0.680;2023-01-06T02:02:01;4.50;;;0.80;;
57249;SDS011;43102;52.014;-0.680;2023-01-06T02:03:02;4.50;;;0.80;;
57249;SDS011;43102;52.014;-0.680;2023-01-06T02:04:01;4.50;;;0.80;;
57249;SDS011;43102;52.014;-0.680;2023-01-06T02:05:01;4.50;;;0.80;;
57249;SDS011;43102;52.014;-0.680;2023-01-06T02:06:03;4.50;;;0.80;;
57249;SDS011;43102;52.014;-0.680;2023-01-06T02:07:01;4.50;;;0.80;;
57249;SDS011;43102;52.014;-0.680;2023-01-06T02:08:06;4.50;;;0.80;;
57249;SDS011;43102;52.014;-0.680;2023-01-06T02:09:05;4.50;;;0.80;;
57249;SDS011;43102;52.014;-0.680;2023-01-06T02:10:06;4.50;;;0.80;;
57249;SDS011;43102;52.014;-0.680;2023-01-06T02:11:01;4.50;;;0.80;;
57249;SDS011;43102;52.014;-0.680;2023-01-06T02:12:01;4.50;;;0.80;;
57249;SDS011;43102;52.014;-0.680;2023-01-06T02:13:01;4.50;;;0.80;;
57249;SDS011;43102;52.014;-0.680;2023-01-06T02:14:12;4.50;;;0.80;;
57249;SDS011;43102;52.014;-0.680;2023-01-06T02:15:00;4.50;;;0.80;;
57249;SDS011;43102;52.014;-0.680;2023-01-06T02:16:15;4.50;;;0.80;;
57249;SDS011;43102;52.014;-0.680;2023-01-06T02:19:11;4.50;;;0.80;;
57249;SDS011;43102;52.014;-0.680;2023-01-06T02:21:08;4.50;;;0.80;;
57249;SDS011;43102;52.014;-0.680;2023-01-06T02:22:16;4.50;;;0.80;;
57249;SDS011;43102;52.014;-0.680;2023-01-06T02:27:07;4.50;;;0.80;;
57249;SDS011;43102;52.014;-0.680;2023-01-06T02:36:09;1.60;;;0.90;;
57249;SDS011;43102;52.014;-0.680;2023-01-06T02:42:19;1.60;;;0.90;;
57249;SDS011;43102;52.014;-0.680;2023-01-06T02:45:11;1.60;;;0.90;;
57249;SDS011;43102;52.014;-0.680;2023-01-06T02:46:06;1.60;;;0.90;;
57249;SDS011;43102;52.014;-0.680;2023-01-06T02:47:18;1.60;;;0.90;;
57249;SDS011;43102;52.014;-0.680;2023-01-06T02:50:13;1.60;;;0.90;;
57249;SDS011;43102;52.014;-0.680;2023-01-06T02:52:10;1.60;;;0.90;;
57249;SDS011;43102;52.014;-0.680;2023-01-06T02:53:47;1.60;;;0.90;;
57249;SDS011;43102;52.014;-0.680;2023-01-06T02:55:08;1.60;;;0.90;;
57249;SDS011;43102;52.014;-0.680;2023-01-06T02:56:01;1.60;;;0.90;;
57249;SDS011;43102;52.014;-0.680;2023-01-06T02:58:05;1.60;;;0.90;;
57249;SDS011;43102;52.014;-0.680;2023-01-06T02:59:06;1.60;;;0.90;;
57249;SDS011;43102;52.014;-0.680;2023-01-06T03:00:10;1.60;;;0.90;;
57249;SDS011;43102;52.014;-0.680;2023-01-06T03:02:02;1.10;;;0.80;;
57249;SDS011;43102;52.014;-0.680;2023-01-06T03:03:08;1.10;;;0.80;;
57249;SDS011;43102;52.014;-0.680;2023-01-06T03:04:03;1.10;;;0.80;;
57249;SDS011;43102;52.014;-0.680;2023-01-06T03:05:03;1.10;;;0.80;;
57249;SDS011;43102;52.014;-0.680;2023-01-06T03:06:08;1.10;;;0.80;;
57249;SDS011;43102;52.014;-0.680;2023-01-06T03:07:02;1.10;;;0.80;;
57249;SDS011;43102;52.014;-0.680;2023-01-06T03:08:04;1.10;;;0.80;;
57249;SDS011;43102;52.014;-0.680;2023-01-06T03:09:02;1.10;;;0.80;;
57249;SDS011;43102;52.014;-0.680;2023-01-06T03:10:02;1.10;;;0.80;;
57249;SDS011;43102;52.014;-0.680;2023-01-06T03:11:01;1.10;;;0.80;;
57249;SDS011;43102;52.014;-0.680;2023-01-06T03:12:06;1.10;;;0.80;;
57249;SDS011;43102;52.014;-0.680;2023-01-06T03:13:05;1.10;;;0.80;;
57249;SDS011;43102;52.014;-0.680;2023-01-06T03:14:05;1.10;;;0.80;;
57249;SDS011;43102;52.014;-0.680;2023-01-06T03:15:01;1.10;;;0.80;;
57249;SDS011;43102;52.014;-0.680;2023-01-06T03:16:00;1.10;;;0.80;;
57249;SDS011;43102;52.014;-0.680;2023-01-06T03:17:01;1.10;;;0.80;;
57249;SDS011;43102;52.014;-0.680;2023-01-06T03:18:01;1.10;;;0.80;;
57249;SDS011;43102;52.014;-0.680;2023-01-06T03:19:02;1.10;;;0.80;;
57249;SDS011;43102;52.014;-0.680;2023-01-06T03:20:00;1.10;;;0.80;;
57249;SDS011;43102;52.014;-0.680;2023-01-06T03:21:05;1.10;;;0.80;;
57249;SDS011;43102;52.014;-0.680;2023-01-06T03:22:01;1.10;;;0.80;;
57249;SDS011;43102;52.014;-0.680;2023-01-06T03:23:00;1.10;;;0.80;;
57249;SDS011;43102;52.014;-0.680;2023-01-06T03:24:02;1.10;;;0.80;;
57249;SDS011;43102;52.014;-0.680;2023-01-06T03:25:01;1.10;;;0.80;;
57249;SDS011;43102;52.014;-0.680;2023-01-06T03:26:00;1.10;;;0.80;;
57249;SDS011;43102;52.014;-0.680;2023-01-06T03:27:00;1.10;;;0.80;;
57249;SDS011;43102;52.014;-0.680;2023-01-06T03:28:00;1.10;;;0.80;;
57249;SDS011;43102;52.014;-0.680;2023-01-06T03:29:02;1.10;;;0.80;;
57249;SDS011;43102;52.014;-0.680;2023-01-06T03:30:02;1.10;;;0.80;;
57249;SDS011;43102;52.014;-0.680;2023-01-06T03:32:07;1.40;;;0.90;;
57249;SDS011;43102;52.014;-0.680;2023-01-06T03:33:11;1.40;;;0.90;;
57249;SDS011;43102;52.014;-0.680;2023-01-06T03:37:04;1.40;;;0.90;;
57249;SDS011;43102;52.014;-0.680;2023-01-06T03:39:13;1.40;;;0.90;;
57249;SDS011;43102;52.014;-0.680;2023-01-06T03:41:17;1.40;;;0.90;;
57249;SDS011;43102;52.014;-0.680;2023-01-06T03:42:46;1.40;;;0.90;;
57249;SDS011;43102;52.014;-0.680;2023-01-06T03:43:17;1.40;;;0.90;;
57249;SDS011;43102;52.014;-0.680;2023-01-06T03:44:06;1.40;;;0.90;;
57249;SDS011;43102;52.014;-0.680;2023-01-06T03:45:11;1.40;;;0.90;;
57249;SDS011;43102;52.014;-0.680;2023-01-06T03:47:14;1.40;;;0.90;;
57249;SDS011;43102;52.014;-0.680;2023-01-06T03:49:06;1.40;;;0.90;;
57249;SDS011;43102;52.014;-0.680;2023-01-06T03:50:09;1.40;;;0.90;;
57249;SDS011;43102;52.014;-0.680;2023-01-06T03:51:05;1.40;;;0.90;;
57249;SDS011;43102;52.014;-0.680;2023-01-06T03:52:17;1.40;;;0.90;;
57249;SDS011;43102;52.014;-0.680;2023-01-06T03:53:21;1.40;;;0.90;;
57249;SDS011;43102;52.014;-0.680;2023-01-06T03:54:06;1.40;;;0.90;;
57249;SDS011;43102;52.014;-0.680;2023-01-06T03:55:08;1.40;;;0.90;;
57249;SDS011;43102;52.014;-0.680;2023-01-06T03:56:14;1.40;;;0.90;;
57249;SDS011;43102;52.014;-0.680;2023-01-06T03:57:13;1.40;;;0.90;;
57249;SDS011;43102;52.014;-0.680;2023-01-06T03:58:04;1.40;;;0.90;;
57249;SDS011;43102;52.014;-0.680;2023-01-06T03:59:05;1.40;;;0.90;;
57249;SDS011;43102;52.014;-0.680;2023-01-06T04:00:06;1.40;;;0.90;;
57249;SDS011;43102;52.014;-0.680;2023-01-06T04:01:00;1.40;;;0.90;;
57249;SDS011;43102;52.014;-0.680;2023-01-06T04:02:02;2.20;;;0.70;;
57249;SDS011;43102;52.014;-0.680;2023-01-06T04:03:01;2.20;;;0.70;;
57249;SDS011;43102;52.014;-0.680;2023-01-06T04:04:02;2.20;;;0.70;;
57249;SDS011;43102;52.014;-0.680;2023-01-06T04:05:11;2.20;;;0.70;;
57249;SDS011;43102;52.014;-0.680;2023-01-06T04:06:00;2.20;;;0.70;;
57249;SDS011;43102;52.014;-0.680;2023-01-06T04:07:00;2.20;;;0.70;;
57249;SDS011;43102;52.014;-0.680;2023-01-06T04:08:00;2.20;;;0.70;;
57249;SDS011;43102;52.014;-0.680;2023-01-06T04:09:01;2.20;;;0.70;;
57249;SDS011;43102;52.014;-0.680;2023-01-06T04:10:00;2.20;;;0.70;;
57249;SDS011;43102;52.014;-0.680;2023-01-06T04:11:00;2.20;;;0.70;;
57249;SDS011;43102;52.014;-0.680;2023-01-06T04:12:10;2.20;;;0.70;;
57249;SDS011;43102;52.014;-0.680;2023-01-06T04:13:00;2.20;;;0.70;;
57249;SDS011;43102;52.014;-0.680;2023-01-06T04:14:00;2.20;;;0.70;;
57249;SDS011;43102;52.014;-0.680;2023-01-06T04:15:00;2.20;;;0.70;;
57249;SDS011;43102;52.014;-0.680;2023-01-06T04:16:01;2.20;;;0.70;;
57249;SDS011;43102;52.014;-0.680;2023-01-06T04:17:00;2.20;;;0.70;;
57249;SDS011;43102;52.014;-0.680;2023-01-06T04:18:00;2.20;;;0.70;;
57249;SDS011;43102;52.014;-0.680;2023-01-06T04:19:00;2.20;;;0.70;;
57249;SDS011;43102;52.014;-0.680;2023-01-06T04:20:01;2.20;;;0.70;;
57249;SDS011;43102;52.014;-0.680;2023-01-06T04:21:00;2.20;;;0.70;;
57249;SDS011;43102;52.014;-0.680;2023-01-06T04:22:00;2.20;;;0.70;;
57249;SDS011;43102;52.014;-0.680;2023-01-06T04:23:00;2.20;;;0.70;;
57249;SDS011;43102;52.014;-0.680;2023-01-06T04:24:01;2.20;;;0.70;;
57249;SDS011;43102;52.014;-0.680;2023-01-06T04:25:00;2.20;;;0.70;;
57249;SDS011;43102;52.014;-0.680;2023-01-06T04:26:00;2.20;;;0.70;;
57249;SDS011;43102;52.014;-0.680;2023-01-06T04:27:00;2.20;;;0.70;;
57249;SDS011;43102;52.014;-0.680;2023-01-06T04:28:00;2.20;;;0.70;;
57249;SDS011;43102;52.014;-0.680;2023-01-06T04:29:01;2.20;;;0.70;;
57249;SDS011;43102;52.014;-0.680;2023-01-06T04:30:00;2.20;;;0.70;;
57249;SDS011;43102;52.014;-0.680;2023-01-06T04:31:01;2.20;;;0.70;;
57249;SDS011;43102;52.014;-0.680;2023-01-06T04:32:00;4.80;;;2.80;;
57249;SDS011;43102;52.014;-0.680;2023-01-06T04:33:00;4.80;;;2.80;;
57249;SDS011;43102;52.014;-0.680;2023-01-06T04:34:00;4.80;;;2.80;;
57249;SDS011;43102;52.014;-0.680;2023-01-06T04:35:00;4.80;;;2.80;;
57249;SDS011;43102;52.014;-0.680;2023-01-06T04:36:01;4.80;;;2.80;;
57249;SDS011;43102;52.014;-0.680;2023-01-06T04:37:00;4.80;;;2.80;;
57249;SDS011;43102;52.014;-0.680;2023-01-06T04:38:02;4.80;;;2.80;;
57249;SDS011;43102;52.014;-0.680;2023-01-06T04:39:00;4.80;;;2.80;;
57249;SDS011;43102;52.014;-0.680;2023-01-06T04:40:01;4.80;;;2.80;;
57249;SDS011;43102;52.014;-0.680;2023-01-06T04:41:01;4.80;;;2.80;;
57249;SDS011;43102;52.014;-0.680;2023-01-06T04:42:00;4.80;;;2.80;;
57249;SDS011;43102;52.014;-0.680;2023-01-06T04:43:03;4.80;;;2.80;;
57249;SDS011;43102;52.014;-0.680;2023-01-06T04:44:00;4.80;;;2.80;;
57249;SDS011;43102;52.014;-0.680;2023-01-06T04:45:00;4.80;;;2.80;;
57249;SDS011;43102;52.014;-0.680;2023-01-06T04:46:00;4.80;;;2.80;;
57249;SDS011;43102;52.014;-0.680;2023-01-06T04:47:00;4.80;;;2.80;;
57249;SDS011;43102;52.014;-0.680;2023-01-06T04:48:01;4.80;;;2.80;;
57249;SDS011;43102;52.014;-0.680;2023-01-06T04:49:00;4.80;;;2.80;;
57249;SDS011;43102;52.014;-0.680;2023-01-06T04:50:00;4.80;;;2.80;;
57249;SDS011;43102;52.014;-0.680;2023-01-06T04:51:03;4.80;;;2.80;;
57249;SDS011;43102;52.014;-0.680;2023-01-06T04:52:00;4.80;;;2.80;;
57249;SDS011;43102;52.014;-0.680;2023-01-06T04:53:00;4.80;;;2.80;;
57249;SDS011;43102;52.014;-0.680;2023-01-06T04:54:00;4.80;;;2.80;;
57249;SDS011;43102;52.014;-0.680;2023-01-06T04:55:00;4.80;;;2.80;;
57249;SDS011;43102;52.014;-0.680;2023-01-06T04:56:03;4.80;;;2.80;;
57249;SDS011;43102;52.014;-0.680;2023-01-06T04:57:01;4.80;;;2.80;;
57249;SDS011;43102;52.014;-0.680;2023-01-06T04:58:00;4.80;;;2.80;;
57249;SDS011;43102;52.014;-0.680;2023-01-06T04:59:00;4.80;;;2.80;;
57249;SDS011;43102;52.014;-0.680;2023-01-06T05:00:00;4.80;;;2.80;;
57249;SDS011;43102;52.014;-0.680;2023-01-06T05:01:03;4.80;;;2.80;;
57249;SDS011;43102;52.014;-0.680;2023-01-06T05:02:00;5.10;;;2.40;;
57249;SDS011;43102;52.014;-0.680;2023-01-06T05:03:00;5.10;;;2.40;;
57249;SDS011;43102;52.014;-0.680;2023-01-06T05:04:02;5.10;;;2.40;;
57249;SDS011;43102;52.014;-0.680;2023-01-06T05:05:00;5.10;;;2.40;;
57249;SDS011;43102;52.014;-0.680;2023-01-06T05:06:02;5.10;;;2.40;;
57249;SDS011;43102;52.014;-0.680;2023-01-06T05:07:00;5.10;;;2.40;;
57249;SDS011;43102;52.014;-0.680;2023-01-06T05:08:00;5.10;;;2.40;;
57249;SDS011;43102;52.014;-0.680;2023-01-06T05:09:00;5.10;;;2.40;;
57249;SDS011;43102;52.014;-0.680;2023-01-06T05:10:01;5.10;;;2.40;;
57249;SDS011;43102;52.014;-0.680;2023-01-06T05:11:03;5.10;;;2.40;;
57249;SDS011;43102;52.014;-0.680;2023-01-06T05:12:00;5.10;;;2.40;;
57249;SDS011;43102;52.014;-0.680;2023-01-06T05:13:00;5.10;;;2.40;;
57249;SDS011;43102;52.014;-0.680;2023-01-06T05:14:00;5.10;;;2.40;;
57249;SDS011;43102;52.014;-0.680;2023-01-06T05:15:01;5.10;;;2.40;;
57249;SDS011;43102;52.014;-0.680;2023-01-06T05:16:06;5.10;;;2.40;;
57249;SDS011;43102;52.014;-0.680;2023-01-06T05:17:00;5.10;;;2.40;;
57249;SDS011;43102;52.014;-0.680;2023-01-06T05:18:00;5.10;;;2.40;;
57249;SDS011;43102;52.014;-0.680;2023-01-06T05:19:01;5.10;;;2.40;;
57249;SDS011;43102;52.014;-0.680;2023-01-06T05:20:00;5.10;;;2.40;;
57249;SDS011;43102;52.014;-0.680;2023-01-06T05:21:01;5.10;;;2.40;;
57249;SDS011;43102;52.014;-0.680;2023-01-06T05:22:00;5.10;;;2.40;;
57249;SDS011;43102;52.014;-0.680;2023-01-06T05:23:00;5.10;;;2.40;;
57249;SDS011;43102;52.014;-0.680;2023-01-06T05:24:01;5.10;;;2.40;;
57249;SDS011;43102;52.014;-0.680;2023-01-06T05:25:00;5.10;;;2.40;;
57249;SDS011;43102;52.014;-0.680;2023-01-06T05:26:00;5.10;;;2.40;;
57249;SDS011;43102;52.014;-0.680;2023-01-06T05:27:01;5.10;;;2.40;;
57249;SDS011;43102;52.014;-0.680;2023-01-06T05:28:00;5.10;;;2.40;;
57249;SDS011;43102;52.014;-0.680;2023-01-06T05:29:01;5.10;;;2.40;;
57249;SDS011;43102;52.014;-0.680;2023-01-06T05:30:01;5.10;;;2.40;;
57249;SDS011;43102;52.014;-0.680;2023-01-06T05:31:02;5.10;;;2.40;;
57249;SDS011;43102;52.014;-0.680;2023-01-06T05:32:00;3.80;;;2.40;;
57249;SDS011;43102;52.014;-0.680;2023-01-06T05:33:00;3.80;;;2.40;;
57249;SDS011;43102;52.014;-0.680;2023-01-06T05:34:00;3.80;;;2.40;;
57249;SDS011;43102;52.014;-0.680;2023-01-06T05:35:00;3.80;;;2.40;;
57249;SDS011;43102;52.014;-0.680;2023-01-06T05:36:03;3.80;;;2.40;;
57249;SDS011;43102;52.014;-0.680;2023-01-06T05:37:00;3.80;;;2.40;;
57249;SDS011;43102;52.014;-0.680;2023-01-06T05:38:01;3.80;;;2.40;;
57249;SDS011;43102;52.014;-0.680;2023-01-06T05:39:00;3.80;;;2.40;;
57249;SDS011;43102;52.014;-0.680;2023-01-06T05:40:00;3.80;;;2.40;;
57249;SDS011;43102;52.014;-0.680;2023-01-06T05:41:01;3.80;;;2.40;;
57249;SDS011;43102;52.014;-0.680;2023-01-06T05:42:00;3.80;;;2.40;;
57249;SDS011;43102;52.014;-0.680;2023-01-06T05:43:00;3.80;;;2.40;;
57249;SDS011;43102;52.014;-0.680;2023-01-06T05:44:00;3.80;;;2.40;;
57249;SDS011;43102;52.014;-0.680;2023-01-06T05:45:00;3.80;;;2.40;;
57249;SDS011;43102;52.014;-0.680;2023-01-06T05:46:09;3.80;;;2.40;;
57249;SDS011;43102;52.014;-0.680;2023-01-06T05:47:00;3.80;;;2.40;;
57249;SDS011;43102;52.014;-0.680;2023-01-06T05:48:01;3.80;;;2.40;;
57249;SDS011;43102;52.014;-0.680;2023-01-06T05:49:01;3.80;;;2.40;;
57249;SDS011;43102;52.014;-0.680;2023-01-06T05:50:01;3.80;;;2.40;;
57249;SDS011;43102;52.014;-0.680;2023-01-06T05:51:04;3.80;;;2.40;;
57249;SDS011;43102;52.014;-0.680;2023-01-06T05:52:00;3.80;;;2.40;;
57249;SDS011;43102;52.014;-0.680;2023-01-06T05:53:00;3.80;;;2.40;;
57249;SDS011;43102;52.014;-0.680;2023-01-06T05:54:00;3.80;;;2.40;;
57249;SDS011;43102;52.014;-0.680;2023-01-06T05:55:00;3.80;;;2.40;;
57249;SDS011;43102;52.014;-0.680;2023-01-06T05:56:02;3.80;;;2.40;;
57249;SDS011;43102;52.014;-0.680;2023-01-06T05:57:00;3.80;;;2.40;;
57249;SDS011;43102;52.014;-0.680;2023-01-06T05:58:00;3.80;;;2.40;;
57249;SDS011;43102;52.014;-0.680;2023-01-06T05:59:01;3.80;;;2.40;;
57249;SDS011;43102;52.014;-0.680;2023-01-06T06:00:02;3.80;;;2.40;;
57249;SDS011;43102;52.014;-0.680;2023-01-06T06:01:01;3.80;;;2.40;;
57249;SDS011;43102;52.014;-0.680;2023-01-06T06:02:00;5.20;;;2.30;;
57249;SDS011;43102;52.014;-0.680;2023-01-06T06:03:00;5.20;;;2.30;;
57249;SDS011;43102;52.014;-0.680;2023-01-06T06:04:00;5.20;;;2.30;;
57249;SDS011;43102;52.014;-0.680;2023-01-06T06:05:00;5.20;;;2.30;;
57249;SDS011;43102;52.014;-0.680;2023-01-06T06:06:02;5.20;;;2.30;;
57249;SDS011;43102;52.014;-0.680;2023-01-06T06:07:00;5.20;;;2.30;;
57249;SDS011;43102;52.014;-0.680;2023-01-06T06:08:00;5.20;;;2.30;;
57249;SDS011;43102;52.014;-0.680;2023-01-06T06:09:00;5.20;;;2.30;;
57249;SDS011;43102;52.014;-0.680;2023-01-06T06:10:01;5.20;;;2.30;;
57249;SDS011;43102;52.014;-0.680;2023-01-06T06:11:03;5.20;;;2.30;;
57249;SDS011;43102;52.014;-0.680;2023-01-06T06:12:00;5.20;;;2.30;;
57249;SDS011;43102;52.014;-0.680;2023-01-06T06:13:00;5.20;;;2.30;;
57249;SDS011;43102;52.014;-0.680;2023-01-06T06:14:00;5.20;;;2.30;;
57249;SDS011;43102;52.014;-0.680;2023-01-06T06:15:00;5.20;;;2.30;;
57249;SDS011;43102;52.014;-0.680;2023-01-06T06:16:03;5.20;;;2.30;;
57249;SDS011;43102;52.014;-0.680;2023-01-06T06:17:00;5.20;;;2.30;;
57249;SDS011;43102;52.014;-0.680;2023-01-06T06:18:01;5.20;;;2.30;;
57249;SDS011;43102;52.014;-0.680;2023-01-06T06:19:00;5.20;;;2.30;;
57249;SDS011;43102;52.014;-0.680;2023-01-06T06:20:00;5.20;;;2.30;;
57249;SDS011;43102;52.014;-0.680;2023-01-06T06:21:02;5.20;;;2.30;;
57249;SDS011;43102;52.014;-0.680;2023-01-06T06:22:00;5.20;;;2.30;;
57249;SDS011;43102;52.014;-0.680;2023-01-06T06:23:00;5.20;;;2.30;;
57249;SDS011;43102;52.014;-0.680;2023-01-06T06:24:01;5.20;;;2.30;;
57249;SDS011;43102;52.014;-0.680;2023-01-06T06:25:00;5.20;;;2.30;;
57249;SDS011;43102;52.014;-0.680;2023-01-06T06:26:01;5.20;;;2.30;;
57249;SDS011;43102;52.014;-0.680;2023-01-06T06:27:00;5.20;;;2.30;;
57249;SDS011;43102;52.014;-0.680;2023-01-06T06:28:00;5.20;;;2.30;;
57249;SDS011;43102;52.014;-0.680;2023-01-06T06:29:00;5.20;;;2.30;;
57249;SDS011;43102;52.014;-0.680;2023-01-06T06:30:00;5.20;;;2.30;;
57249;SDS011;43102;52.014;-0.680;2023-01-06T06:32:00;7.10;;;1.80;;
57249;SDS011;43102;52.014;-0.680;2023-01-06T06:33:00;7.10;;;1.80;;